sensor_id;sensor_type;location;lat;lon;timestamp;P1;durP1;ratioP1;P2;durP2;ratioP2
27365;SDS011;14837;57.148;-2.144;2022-12-05T00:03:39;2.90;;;1.15;;
27365;SDS011;14837;57.148;-2.144;2022-12-05T00:06:06;4.18;;;1.35;;
27365;SDS011;14837;57.148;-2.144;2022-12-05T00:08:32;4.47;;;1.50;;
27365;SDS011;14837;57.148;-2.144;2022-12-05T00:10:59;5.90;;;1.30;;
27365;SDS011;14837;57.148;-2.144;2022-12-05T00:13:25;7.93;;;1.67;;
27365;SDS011;14837;57.148;-2.144;2022-12-05T00:15:52;6.97;;;1.45;;
27365;SDS011;14837;57.148;-2.144;2022-12-05T00:18:18;4.07;;;1.05;;
27365;SDS011;14837;57.148;-2.144;2022-12-05T00:20:45;4.20;;;1.40;;
27365;SDS011;14837;57.148;-2.144;2022-12-05T00:23:12;6.70;;;1.38;;
27365;SDS011;14837;57.148;-2.144;2022-12-05T00:25:38;4.28;;;1.35;;
27365;SDS011;14837;57.148;-2.144;2022-12-05T00:28:05;7.95;;;1.60;;
27365;SDS011;14837;57.148;-2.144;2022-12-05T00:30:32;7.82;;;1.63;;
27365;SDS011;14837;57.148;-2.144;2022-12-05T00:32:58;6.18;;;1.20;;
27365;SDS011;14837;57.148;-2.144;2022-12-05T00:35:25;4.88;;;1.50;;
27365;SDS011;14837;57.148;-2.144;2022-12-05T00:37:51;5.57;;;1.50;;
27365;SDS011;14837;57.148;-2.144;2022-12-05T00:40:18;7.30;;;1.42;;
27365;SDS011;14837;57.148;-2.144;2022-12-05T00:42:45;4.63;;;0.80;;
27365;SDS011;14837;57.148;-2.144;2022-12-05T00:45:17;2.45;;;0.93;;
27365;SDS011;14837;57.148;-2.144;2022-12-05T00:47:44;5.40;;;1.15;;
27365;SDS011;14837;57.148;-2.144;2022-12-05T00:50:10;3.20;;;1.60;;
27365;SDS011;14837;57.148;-2.144;2022-12-05T00:52:38;3.03;;;0.85;;
27365;SDS011;14837;57.148;-2.144;2022-12-05T00:55:05;3.95;;;1.02;;
27365;SDS011;14837;57.148;-2.144;2022-12-05T00:57:32;5.03;;;1.40;;
27365;SDS011;14837;57.148;-2.144;2022-12-05T00:59:59;3.67;;;1.25;;
27365;SDS011;14837;57.148;-2.144;2022-12-05T01:02:25;8.88;;;1.20;;
27365;SDS011;14837;57.148;-2.144;2022-12-05T01:04:52;4.22;;;1.70;;
27365;SDS011;14837;57.148;-2.144;2022-12-05T01:07:18;4.82;;;1.52;;
27365;SDS011;14837;57.148;-2.144;2022-12-05T01:09:45;7.05;;;1.52;;
27365;SDS011;14837;57.148;-2.144;2022-12-05T01:12:11;3.13;;;1.30;;
27365;SDS011;14837;57.148;-2.144;2022-12-05T01:14:38;5.65;;;1.08;;
27365;SDS011;14837;57.148;-2.144;2022-12-05T01:17:05;6.90;;;1.10;;
27365;SDS011;14837;57.148;-2.144;2022-12-05T01:19:31;5.82;;;1.42;;
27365;SDS011;14837;57.148;-2.144;2022-12-05T01:21:58;4.88;;;1.52;;
27365;SDS011;14837;57.148;-2.144;2022-12-05T01:24:25;5.05;;;1.17;;
27365;SDS011;14837;57.148;-2.144;2022-12-05T01:26:52;4.85;;;1.40;;
27365;SDS011;14837;57.148;-2.144;2022-12-05T01:29:19;2.47;;;1.13;;
27365;SDS011;14837;57.148;-2.144;2022-12-05T01:31:46;1.90;;;1.08;;
27365;SDS011;14837;57.148;-2.144;2022-12-05T01:34:14;3.75;;;0.90;;
27365;SDS011;14837;57.148;-2.144;2022-12-05T01:36:41;6.85;;;1.42;;
27365;SDS011;14837;57.148;-2.144;2022-12-05T01:39:08;3.83;;;1.83;;
27365;SDS011;14837;57.148;-2.144;2022-12-05T01:41:35;3.17;;;1.17;;
27365;SDS011;14837;57.148;-2.144;2022-12-05T01:46:33;3.80;;;0.88;;
27365;SDS011;14837;57.148;-2.144;2022-12-05T01:49:06;4.13;;;1.23;;
27365;SDS011;14837;57.148;-2.144;2022-12-05T01:51:33;3.65;;;1.15;;
27365;SDS011;14837;57.148;-2.144;2022-12-05T01:54:01;2.53;;;0.90;;
27365;SDS011;14837;57.148;-2.144;2022-12-05T01:56:30;6.43;;;1.02;;
27365;SDS011;14837;57.148;-2.144;2022-12-05T01:58:58;2.40;;;0.77;;
27365;SDS011;14837;57.148;-2.144;2022-12-05T02:01:25;5.72;;;1.10;;
27365;SDS011;14837;57.148;-2.144;2022-12-05T02:03:53;5.22;;;1.58;;
27365;SDS011;14837;57.148;-2.144;2022-12-05T02:06:21;6.43;;;1.55;;
27365;SDS011;14837;57.148;-2.144;2022-12-05T02:08:50;6.78;;;1.38;;
27365;SDS011;14837;57.148;-2.144;2022-12-05T02:11:17;4.20;;;1.60;;
27365;SDS011;14837;57.148;-2.144;2022-12-05T02:13:50;4.60;;;1.20;;
27365;SDS011;14837;57.148;-2.144;2022-12-05T02:18:52;10.65;;;1.63;;
27365;SDS011;14837;57.148;-2.144;2022-12-05T02:21:34;8.20;;;1.80;;
27365;SDS011;14837;57.148;-2.144;2022-12-05T02:26:47;4.93;;;1.55;;
27365;SDS011;14837;57.148;-2.144;2022-12-05T02:29:22;6.35;;;1.20;;
27365;SDS011;14837;57.148;-2.144;2022-12-05T02:34:44;3.92;;;1.35;;
27365;SDS011;14837;57.148;-2.144;2022-12-05T02:37:33;3.83;;;1.30;;
27365;SDS011;14837;57.148;-2.144;2022-12-05T02:40:10;3.47;;;1.23;;
27365;SDS011;14837;57.148;-2.144;2022-12-05T02:42:44;4.53;;;1.38;;
27365;SDS011;14837;57.148;-2.144;2022-12-05T02:45:13;4.75;;;1.58;;
27365;SDS011;14837;57.148;-2.144;2022-12-05T02:47:47;6.20;;;1.55;;
27365;SDS011;14837;57.148;-2.144;2022-12-05T02:50:16;2.50;;;1.30;;
27365;SDS011;14837;57.148;-2.144;2022-12-05T02:52:44;7.22;;;1.25;;
27365;SDS011;14837;57.148;-2.144;2022-12-05T02:55:12;5.25;;;1.50;;
27365;SDS011;14837;57.148;-2.144;2022-12-05T02:57:39;3.83;;;1.23;;
27365;SDS011;14837;57.148;-2.144;2022-12-05T03:00:10;4.32;;;1.83;;
27365;SDS011;14837;57.148;-2.144;2022-12-05T03:02:37;4.53;;;1.30;;
27365;SDS011;14837;57.148;-2.144;2022-12-05T03:05:30;3.33;;;1.20;;
27365;SDS011;14837;57.148;-2.144;2022-12-05T03:07:51;4.97;;;1.27;;
27365;SDS011;14837;57.148;-2.144;2022-12-05T03:10:20;2.58;;;1.20;;
27365;SDS011;14837;57.148;-2.144;2022-12-05T03:12:50;2.03;;;0.82;;
27365;SDS011;14837;57.148;-2.144;2022-12-05T03:15:22;2.80;;;1.45;;
27365;SDS011;14837;57.148;-2.144;2022-12-05T03:17:54;6.15;;;1.38;;
27365;SDS011;14837;57.148;-2.144;2022-12-05T03:20:26;2.03;;;0.97;;
27365;SDS011;14837;57.148;-2.144;2022-12-05T03:22:58;5.47;;;2.50;;
27365;SDS011;14837;57.148;-2.144;2022-12-05T03:25:29;5.70;;;1.30;;
27365;SDS011;14837;57.148;-2.144;2022-12-05T03:28:09;4.22;;;1.02;;
27365;SDS011;14837;57.148;-2.144;2022-12-05T03:30:38;6.50;;;1.73;;
27365;SDS011;14837;57.148;-2.144;2022-12-05T03:33:16;3.40;;;1.40;;
27365;SDS011;14837;57.148;-2.144;2022-12-05T03:35:56;4.78;;;1.17;;
27365;SDS011;14837;57.148;-2.144;2022-12-05T03:38:26;7.43;;;1.58;;
27365;SDS011;14837;57.148;-2.144;2022-12-05T03:43:48;2.83;;;1.27;;
27365;SDS011;14837;57.148;-2.144;2022-12-05T03:51:27;2.35;;;0.75;;
27365;SDS011;14837;57.148;-2.144;2022-12-05T03:57:00;2.85;;;1.00;;
27365;SDS011;14837;57.148;-2.144;2022-12-05T03:59:33;2.90;;;1.00;;
27365;SDS011;14837;57.148;-2.144;2022-12-05T04:02:03;2.83;;;1.02;;
27365;SDS011;14837;57.148;-2.144;2022-12-05T04:04:40;4.43;;;1.27;;
27365;SDS011;14837;57.148;-2.144;2022-12-05T04:07:10;3.53;;;1.80;;
27365;SDS011;14837;57.148;-2.144;2022-12-05T04:09:49;4.88;;;1.50;;
27365;SDS011;14837;57.148;-2.144;2022-12-05T04:12:19;6.03;;;1.60;;
27365;SDS011;14837;57.148;-2.144;2022-12-05T04:14:48;8.75;;;1.38;;
27365;SDS011;14837;57.148;-2.144;2022-12-05T04:20:05;3.85;;;1.20;;
27365;SDS011;14837;57.148;-2.144;2022-12-05T04:22:54;3.00;;;1.10;;
27365;SDS011;14837;57.148;-2.144;2022-12-05T04:25:20;4.53;;;1.10;;
27365;SDS011;14837;57.148;-2.144;2022-12-05T04:30:52;6.10;;;1.20;;
27365;SDS011;14837;57.148;-2.144;2022-12-05T04:38:30;3.33;;;1.20;;
27365;SDS011;14837;57.148;-2.144;2022-12-05T04:41:01;3.85;;;1.23;;
27365;SDS011;14837;57.148;-2.144;2022-12-05T04:43:29;4.28;;;0.90;;
27365;SDS011;14837;57.148;-2.144;2022-12-05T04:45:57;2.25;;;0.82;;
27365;SDS011;14837;57.148;-2.144;2022-12-05T04:48:25;6.60;;;1.05;;
27365;SDS011;14837;57.148;-2.144;2022-12-05T04:50:53;3.85;;;1.50;;
27365;SDS011;14837;57.148;-2.144;2022-12-05T04:53:21;6.80;;;1.02;;
27365;SDS011;14837;57.148;-2.144;2022-12-05T04:55:49;5.80;;;1.05;;
27365;SDS011;14837;57.148;-2.144;2022-12-05T04:58:18;5.57;;;1.65;;
27365;SDS011;14837;57.148;-2.144;2022-12-05T05:00:46;4.50;;;1.27;;
27365;SDS011;14837;57.148;-2.144;2022-12-05T05:03:18;2.55;;;1.20;;
27365;SDS011;14837;57.148;-2.144;2022-12-05T05:05:46;10.85;;;2.28;;
27365;SDS011;14837;57.148;-2.144;2022-12-05T05:08:18;1.45;;;0.85;;
27365;SDS011;14837;57.148;-2.144;2022-12-05T05:11:31;3.42;;;1.30;;
27365;SDS011;14837;57.148;-2.144;2022-12-05T05:13:31;4.63;;;1.63;;
27365;SDS011;14837;57.148;-2.144;2022-12-05T05:15:58;4.15;;;1.65;;
27365;SDS011;14837;57.148;-2.144;2022-12-05T05:18:24;9.02;;;2.13;;
27365;SDS011;14837;57.148;-2.144;2022-12-05T05:20:51;2.17;;;0.98;;
27365;SDS011;14837;57.148;-2.144;2022-12-05T05:23:18;2.88;;;1.17;;
27365;SDS011;14837;57.148;-2.144;2022-12-05T05:25:44;2.13;;;1.00;;
27365;SDS011;14837;57.148;-2.144;2022-12-05T05:28:11;2.13;;;0.85;;
27365;SDS011;14837;57.148;-2.144;2022-12-05T05:30:37;3.15;;;1.00;;
27365;SDS011;14837;57.148;-2.144;2022-12-05T05:33:04;3.53;;;1.30;;
27365;SDS011;14837;57.148;-2.144;2022-12-05T05:35:30;4.25;;;1.17;;
27365;SDS011;14837;57.148;-2.144;2022-12-05T05:37:57;3.40;;;1.17;;
27365;SDS011;14837;57.148;-2.144;2022-12-05T05:40:23;2.28;;;1.15;;
27365;SDS011;14837;57.148;-2.144;2022-12-05T05:42:50;1.65;;;1.00;;
27365;SDS011;14837;57.148;-2.144;2022-12-05T05:45:16;2.85;;;0.90;;
27365;SDS011;14837;57.148;-2.144;2022-12-05T05:47:43;5.20;;;1.13;;
27365;SDS011;14837;57.148;-2.144;2022-12-05T05:50:10;1.90;;;1.00;;
27365;SDS011;14837;57.148;-2.144;2022-12-05T05:52:44;5.70;;;1.42;;
27365;SDS011;14837;57.148;-2.144;2022-12-05T05:55:11;5.63;;;0.90;;
27365;SDS011;14837;57.148;-2.144;2022-12-05T05:57:37;4.38;;;1.20;;
27365;SDS011;14837;57.148;-2.144;2022-12-05T06:00:05;6.55;;;1.70;;
27365;SDS011;14837;57.148;-2.144;2022-12-05T06:02:33;2.78;;;1.20;;
27365;SDS011;14837;57.148;-2.144;2022-12-05T06:05:00;3.10;;;1.30;;
27365;SDS011;14837;57.148;-2.144;2022-12-05T06:07:27;4.90;;;1.23;;
27365;SDS011;14837;57.148;-2.144;2022-12-05T06:09:53;2.88;;;1.15;;
27365;SDS011;14837;57.148;-2.144;2022-12-05T06:12:20;3.58;;;2.15;;
27365;SDS011;14837;57.148;-2.144;2022-12-05T06:14:47;2.10;;;0.98;;
27365;SDS011;14837;57.148;-2.144;2022-12-05T06:17:14;2.67;;;0.98;;
27365;SDS011;14837;57.148;-2.144;2022-12-05T06:19:40;4.13;;;1.20;;
27365;SDS011;14837;57.148;-2.144;2022-12-05T06:22:07;2.38;;;0.90;;
27365;SDS011;14837;57.148;-2.144;2022-12-05T06:24:34;1.75;;;0.75;;
27365;SDS011;14837;57.148;-2.144;2022-12-05T06:27:00;2.05;;;0.90;;
27365;SDS011;14837;57.148;-2.144;2022-12-05T06:29:27;5.13;;;1.08;;
27365;SDS011;14837;57.148;-2.144;2022-12-05T06:31:59;4.13;;;0.93;;
27365;SDS011;14837;57.148;-2.144;2022-12-05T06:34:25;3.60;;;1.00;;
27365;SDS011;14837;57.148;-2.144;2022-12-05T06:36:52;3.40;;;1.20;;
27365;SDS011;14837;57.148;-2.144;2022-12-05T06:39:19;2.78;;;1.42;;
27365;SDS011;14837;57.148;-2.144;2022-12-05T06:41:45;4.22;;;1.88;;
27365;SDS011;14837;57.148;-2.144;2022-12-05T06:44:12;5.22;;;1.75;;
27365;SDS011;14837;57.148;-2.144;2022-12-05T06:46:38;6.93;;;1.67;;
27365;SDS011;14837;57.148;-2.144;2022-12-05T06:49:05;2.03;;;1.30;;
27365;SDS011;14837;57.148;-2.144;2022-12-05T06:51:32;2.53;;;1.90;;
27365;SDS011;14837;57.148;-2.144;2022-12-05T06:53:58;2.92;;;1.00;;
27365;SDS011;14837;57.148;-2.144;2022-12-05T06:56:25;8.65;;;1.33;;
27365;SDS011;14837;57.148;-2.144;2022-12-05T06:58:52;3.20;;;1.88;;
27365;SDS011;14837;57.148;-2.144;2022-12-05T07:01:20;8.63;;;3.35;;
27365;SDS011;14837;57.148;-2.144;2022-12-05T07:06:38;50.28;;;23.80;;
27365;SDS011;14837;57.148;-2.144;2022-12-05T07:09:05;73.93;;;34.85;;
27365;SDS011;14837;57.148;-2.144;2022-12-05T07:11:32;145.23;;;68.22;;
27365;SDS011;14837;57.148;-2.144;2022-12-05T07:13:59;78.45;;;34.78;;
27365;SDS011;14837;57.148;-2.144;2022-12-05T07:16:35;122.55;;;64.80;;
27365;SDS011;14837;57.148;-2.144;2022-12-05T07:19:02;32.08;;;14.52;;
27365;SDS011;14837;57.148;-2.144;2022-12-05T07:21:29;12.20;;;4.63;;
27365;SDS011;14837;57.148;-2.144;2022-12-05T07:23:56;7.72;;;4.03;;
27365;SDS011;14837;57.148;-2.144;2022-12-05T07:26:22;14.38;;;11.27;;
27365;SDS011;14837;57.148;-2.144;2022-12-05T07:28:49;5.40;;;3.97;;
27365;SDS011;14837;57.148;-2.144;2022-12-05T07:31:17;4.35;;;1.67;;
27365;SDS011;14837;57.148;-2.144;2022-12-05T07:33:44;5.25;;;1.73;;
27365;SDS011;14837;57.148;-2.144;2022-12-05T07:36:12;6.88;;;1.65;;
27365;SDS011;14837;57.148;-2.144;2022-12-05T07:38:39;2.58;;;1.63;;
27365;SDS011;14837;57.148;-2.144;2022-12-05T07:41:08;3.38;;;2.00;;
27365;SDS011;14837;57.148;-2.144;2022-12-05T07:43:39;5.60;;;1.30;;
27365;SDS011;14837;57.148;-2.144;2022-12-05T07:46:06;2.70;;;1.42;;
27365;SDS011;14837;57.148;-2.144;2022-12-05T07:48:33;5.70;;;1.55;;
27365;SDS011;14837;57.148;-2.144;2022-12-05T07:51:02;2.38;;;1.48;;
27365;SDS011;14837;57.148;-2.144;2022-12-05T07:53:29;4.32;;;1.40;;
27365;SDS011;14837;57.148;-2.144;2022-12-05T07:56:00;4.32;;;2.15;;
27365;SDS011;14837;57.148;-2.144;2022-12-05T07:58:27;2.55;;;1.40;;
27365;SDS011;14837;57.148;-2.144;2022-12-05T08:00:54;7.72;;;1.55;;
27365;SDS011;14837;57.148;-2.144;2022-12-05T08:03:21;3.05;;;1.95;;
27365;SDS011;14837;57.148;-2.144;2022-12-05T08:05:47;3.20;;;1.60;;
27365;SDS011;14837;57.148;-2.144;2022-12-05T08:08:14;2.75;;;1.45;;
27365;SDS011;14837;57.148;-2.144;2022-12-05T08:10:40;2.72;;;1.33;;
27365;SDS011;14837;57.148;-2.144;2022-12-05T08:13:08;3.97;;;1.50;;
27365;SDS011;14837;57.148;-2.144;2022-12-05T08:15:35;6.05;;;1.50;;
27365;SDS011;14837;57.148;-2.144;2022-12-05T08:18:02;4.22;;;1.35;;
27365;SDS011;14837;57.148;-2.144;2022-12-05T08:20:29;4.03;;;1.70;;
27365;SDS011;14837;57.148;-2.144;2022-12-05T08:22:55;4.57;;;1.75;;
27365;SDS011;14837;57.148;-2.144;2022-12-05T08:25:22;3.58;;;1.55;;
27365;SDS011;14837;57.148;-2.144;2022-12-05T08:27:49;4.95;;;1.77;;
27365;SDS011;14837;57.148;-2.144;2022-12-05T08:30:15;2.35;;;1.50;;
27365;SDS011;14837;57.148;-2.144;2022-12-05T08:32:42;2.67;;;1.50;;
27365;SDS011;14837;57.148;-2.144;2022-12-05T08:35:08;10.25;;;5.75;;
27365;SDS011;14837;57.148;-2.144;2022-12-05T08:37:35;14.63;;;6.80;;
27365;SDS011;14837;57.148;-2.144;2022-12-05T08:40:02;14.15;;;7.40;;
27365;SDS011;14837;57.148;-2.144;2022-12-05T08:42:29;51.67;;;22.77;;
27365;SDS011;14837;57.148;-2.144;2022-12-05T08:44:55;40.35;;;20.13;;
27365;SDS011;14837;57.148;-2.144;2022-12-05T08:47:22;28.58;;;19.08;;
27365;SDS011;14837;57.148;-2.144;2022-12-05T08:49:48;22.30;;;12.65;;
27365;SDS011;14837;57.148;-2.144;2022-12-05T08:52:15;15.63;;;8.38;;
27365;SDS011;14837;57.148;-2.144;2022-12-05T08:54:41;18.33;;;7.28;;
27365;SDS011;14837;57.148;-2.144;2022-12-05T08:57:08;9.35;;;3.50;;
27365;SDS011;14837;57.148;-2.144;2022-12-05T08:59:34;11.80;;;3.75;;
27365;SDS011;14837;57.148;-2.144;2022-12-05T09:02:01;17.42;;;4.80;;
27365;SDS011;14837;57.148;-2.144;2022-12-05T09:04:27;13.88;;;5.85;;
27365;SDS011;14837;57.148;-2.144;2022-12-05T09:06:54;29.88;;;17.23;;
27365;SDS011;14837;57.148;-2.144;2022-12-05T09:09:20;21.27;;;6.03;;
27365;SDS011;14837;57.148;-2.144;2022-12-05T09:11:47;4.28;;;3.08;;
27365;SDS011;14837;57.148;-2.144;2022-12-05T09:14:16;6.20;;;2.30;;
27365;SDS011;14837;57.148;-2.144;2022-12-05T09:16:43;5.97;;;1.80;;
27365;SDS011;14837;57.148;-2.144;2022-12-05T09:19:12;2.83;;;1.90;;
27365;SDS011;14837;57.148;-2.144;2022-12-05T09:21:39;6.18;;;3.67;;
27365;SDS011;14837;57.148;-2.144;2022-12-05T09:24:06;3.95;;;1.98;;
27365;SDS011;14837;57.148;-2.144;2022-12-05T09:26:33;3.40;;;2.00;;
27365;SDS011;14837;57.148;-2.144;2022-12-05T09:29:00;2.97;;;1.25;;
27365;SDS011;14837;57.148;-2.144;2022-12-05T09:31:27;5.60;;;1.70;;
27365;SDS011;14837;57.148;-2.144;2022-12-05T09:33:54;3.63;;;1.77;;
27365;SDS011;14837;57.148;-2.144;2022-12-05T09:36:22;3.10;;;1.65;;
27365;SDS011;14837;57.148;-2.144;2022-12-05T09:38:49;1.88;;;1.27;;
27365;SDS011;14837;57.148;-2.144;2022-12-05T09:44:36;4.68;;;1.30;;
27365;SDS011;14837;57.148;-2.144;2022-12-05T09:47:52;1.95;;;1.40;;
27365;SDS011;14837;57.148;-2.144;2022-12-05T09:49:53;2.15;;;1.30;;
27365;SDS011;14837;57.148;-2.144;2022-12-05T09:52:25;2.65;;;1.70;;
27365;SDS011;14837;57.148;-2.144;2022-12-05T09:54:52;6.85;;;2.60;;
27365;SDS011;14837;57.148;-2.144;2022-12-05T09:57:23;40.97;;;21.15;;
27365;SDS011;14837;57.148;-2.144;2022-12-05T09:59:59;64.00;;;29.42;;
27365;SDS011;14837;57.148;-2.144;2022-12-05T10:02:28;71.15;;;34.25;;
27365;SDS011;14837;57.148;-2.144;2022-12-05T10:05:06;34.83;;;17.08;;
27365;SDS011;14837;57.148;-2.144;2022-12-05T10:10:26;73.65;;;31.38;;
27365;SDS011;14837;57.148;-2.144;2022-12-05T10:26:03;8.52;;;4.65;;
27365;SDS011;14837;57.148;-2.144;2022-12-05T10:28:35;7.88;;;5.25;;
27365;SDS011;14837;57.148;-2.144;2022-12-05T10:31:07;4.28;;;3.35;;
27365;SDS011;14837;57.148;-2.144;2022-12-05T10:33:36;3.55;;;3.20;;
27365;SDS011;14837;57.148;-2.144;2022-12-05T10:36:08;3.67;;;2.03;;
27365;SDS011;14837;57.148;-2.144;2022-12-05T10:38:35;5.30;;;1.92;;
27365;SDS011;14837;57.148;-2.144;2022-12-05T10:41:05;2.70;;;1.55;;
27365;SDS011;14837;57.148;-2.144;2022-12-05T10:43:33;2.60;;;1.48;;
27365;SDS011;14837;57.148;-2.144;2022-12-05T10:46:02;2.55;;;1.40;;
27365;SDS011;14837;57.148;-2.144;2022-12-05T10:48:36;6.82;;;1.65;;
27365;SDS011;14837;57.148;-2.144;2022-12-05T10:51:03;5.13;;;2.00;;
27365;SDS011;14837;57.148;-2.144;2022-12-05T10:53:43;5.05;;;1.58;;
27365;SDS011;14837;57.148;-2.144;2022-12-05T10:58:56;3.42;;;1.65;;
27365;SDS011;14837;57.148;-2.144;2022-12-05T11:01:25;3.10;;;1.33;;
27365;SDS011;14837;57.148;-2.144;2022-12-05T11:04:00;2.38;;;1.45;;
27365;SDS011;14837;57.148;-2.144;2022-12-05T11:06:28;2.45;;;1.80;;
27365;SDS011;14837;57.148;-2.144;2022-12-05T11:09:04;5.70;;;1.35;;
27365;SDS011;14837;57.148;-2.144;2022-12-05T11:11:38;3.75;;;1.85;;
27365;SDS011;14837;57.148;-2.144;2022-12-05T11:14:20;2.42;;;1.40;;
27365;SDS011;14837;57.148;-2.144;2022-12-05T11:16:50;2.33;;;1.20;;
27365;SDS011;14837;57.148;-2.144;2022-12-05T11:21:47;3.22;;;1.17;;
27365;SDS011;14837;57.148;-2.144;2022-12-05T11:24:19;2.75;;;1.10;;
27365;SDS011;14837;57.148;-2.144;2022-12-05T11:26:47;2.30;;;1.88;;
27365;SDS011;14837;57.148;-2.144;2022-12-05T11:29:57;2.38;;;1.50;;
27365;SDS011;14837;57.148;-2.144;2022-12-05T11:32:05;4.70;;;1.67;;
27365;SDS011;14837;57.148;-2.144;2022-12-05T11:34:34;3.60;;;2.10;;
27365;SDS011;14837;57.148;-2.144;2022-12-05T11:37:10;4.65;;;1.70;;
27365;SDS011;14837;57.148;-2.144;2022-12-05T11:39:38;6.90;;;2.60;;
27365;SDS011;14837;57.148;-2.144;2022-12-05T11:58:02;2.78;;;2.00;;
27365;SDS011;14837;57.148;-2.144;2022-12-05T12:09:01;3.80;;;2.28;;
27365;SDS011;14837;57.148;-2.144;2022-12-05T12:22:04;4.88;;;1.95;;
27365;SDS011;14837;57.148;-2.144;2022-12-05T12:30:14;5.28;;;2.58;;
27365;SDS011;14837;57.148;-2.144;2022-12-05T12:32:47;3.60;;;2.20;;
27365;SDS011;14837;57.148;-2.144;2022-12-05T12:38:10;3.65;;;2.28;;
27365;SDS011;14837;57.148;-2.144;2022-12-05T12:49:05;3.22;;;2.00;;
27365;SDS011;14837;57.148;-2.144;2022-12-05T12:51:34;3.13;;;2.08;;
27365;SDS011;14837;57.148;-2.144;2022-12-05T12:57:08;2.53;;;1.92;;
27365;SDS011;14837;57.148;-2.144;2022-12-05T13:02:21;3.97;;;1.73;;
27365;SDS011;14837;57.148;-2.144;2022-12-05T13:07:38;3.53;;;1.95;;
27365;SDS011;14837;57.148;-2.144;2022-12-05T13:12:45;1.58;;;1.27;;
27365;SDS011;14837;57.148;-2.144;2022-12-05T13:15:13;1.98;;;1.48;;
27365;SDS011;14837;57.148;-2.144;2022-12-05T13:17:42;3.63;;;2.17;;
27365;SDS011;14837;57.148;-2.144;2022-12-05T13:20:13;3.80;;;1.60;;
27365;SDS011;14837;57.148;-2.144;2022-12-05T13:22:40;2.15;;;1.70;;
27365;SDS011;14837;57.148;-2.144;2022-12-05T13:25:10;2.22;;;1.75;;
27365;SDS011;14837;57.148;-2.144;2022-12-05T13:27:38;3.72;;;1.80;;
27365;SDS011;14837;57.148;-2.144;2022-12-05T13:30:05;2.60;;;1.60;;
27365;SDS011;14837;57.148;-2.144;2022-12-05T13:32:39;3.75;;;2.45;;
27365;SDS011;14837;57.148;-2.144;2022-12-05T13:37:32;3.53;;;1.50;;
27365;SDS011;14837;57.148;-2.144;2022-12-05T13:43:03;3.85;;;1.50;;
27365;SDS011;14837;57.148;-2.144;2022-12-05T13:45:31;3.97;;;1.48;;
27365;SDS011;14837;57.148;-2.144;2022-12-05T13:50:27;2.40;;;1.48;;
27365;SDS011;14837;57.148;-2.144;2022-12-05T13:52:57;2.17;;;1.67;;
27365;SDS011;14837;57.148;-2.144;2022-12-05T13:55:28;4.25;;;2.08;;
27365;SDS011;14837;57.148;-2.144;2022-12-05T13:58:02;2.58;;;1.85;;
27365;SDS011;14837;57.148;-2.144;2022-12-05T14:00:33;2.10;;;1.52;;
27365;SDS011;14837;57.148;-2.144;2022-12-05T14:03:01;2.90;;;1.83;;
27365;SDS011;14837;57.148;-2.144;2022-12-05T14:15:41;3.75;;;2.30;;
27365;SDS011;14837;57.148;-2.144;2022-12-05T14:20:58;2.55;;;1.83;;
27365;SDS011;14837;57.148;-2.144;2022-12-05T14:26:59;5.05;;;1.92;;
27365;SDS011;14837;57.148;-2.144;2022-12-05T14:34:29;3.90;;;2.25;;
27365;SDS011;14837;57.148;-2.144;2022-12-05T14:39:48;3.33;;;1.73;;
27365;SDS011;14837;57.148;-2.144;2022-12-05T14:44:50;3.63;;;2.30;;
27365;SDS011;14837;57.148;-2.144;2022-12-05T14:47:18;3.55;;;2.22;;
27365;SDS011;14837;57.148;-2.144;2022-12-05T14:49:53;3.70;;;2.03;;
27365;SDS011;14837;57.148;-2.144;2022-12-05T14:52:21;3.28;;;2.85;;
27365;SDS011;14837;57.148;-2.144;2022-12-05T14:54:49;4.18;;;2.47;;
27365;SDS011;14837;57.148;-2.144;2022-12-05T14:57:16;3.58;;;1.60;;
27365;SDS011;14837;57.148;-2.144;2022-12-05T15:00:00;2.70;;;1.77;;
27365;SDS011;14837;57.148;-2.144;2022-12-05T15:02:28;9.52;;;2.47;;
27365;SDS011;14837;57.148;-2.144;2022-12-05T15:05:01;3.92;;;2.00;;
27365;SDS011;14837;57.148;-2.144;2022-12-05T15:07:30;4.00;;;2.40;;
27365;SDS011;14837;57.148;-2.144;2022-12-05T15:25:55;3.88;;;2.55;;
27365;SDS011;14837;57.148;-2.144;2022-12-05T15:30:55;3.08;;;1.85;;
27365;SDS011;14837;57.148;-2.144;2022-12-05T15:33:23;4.50;;;1.83;;
27365;SDS011;14837;57.148;-2.144;2022-12-05T15:35:50;3.05;;;1.92;;
27365;SDS011;14837;57.148;-2.144;2022-12-05T15:38:23;5.28;;;3.03;;
27365;SDS011;14837;57.148;-2.144;2022-12-05T15:40:53;2.90;;;2.17;;
27365;SDS011;14837;57.148;-2.144;2022-12-05T15:43:29;6.72;;;3.05;;
27365;SDS011;14837;57.148;-2.144;2022-12-05T15:46:14;6.60;;;3.78;;
27365;SDS011;14837;57.148;-2.144;2022-12-05T15:48:45;5.18;;;2.55;;
27365;SDS011;14837;57.148;-2.144;2022-12-05T15:51:11;9.23;;;5.30;;
27365;SDS011;14837;57.148;-2.144;2022-12-05T15:53:43;13.70;;;10.77;;
27365;SDS011;14837;57.148;-2.144;2022-12-05T15:58:39;4.90;;;4.35;;
27365;SDS011;14837;57.148;-2.144;2022-12-05T16:01:13;4.72;;;3.67;;
27365;SDS011;14837;57.148;-2.144;2022-12-05T16:06:25;3.72;;;2.80;;
27365;SDS011;14837;57.148;-2.144;2022-12-05T16:08:54;4.85;;;3.40;;
27365;SDS011;14837;57.148;-2.144;2022-12-05T16:11:21;6.68;;;4.70;;
27365;SDS011;14837;57.148;-2.144;2022-12-05T16:13:53;7.45;;;4.18;;
27365;SDS011;14837;57.148;-2.144;2022-12-05T16:16:27;5.03;;;2.90;;
27365;SDS011;14837;57.148;-2.144;2022-12-05T16:18:58;6.63;;;2.85;;
27365;SDS011;14837;57.148;-2.144;2022-12-05T16:21:33;5.60;;;2.63;;
27365;SDS011;14837;57.148;-2.144;2022-12-05T16:24:17;4.63;;;3.03;;
27365;SDS011;14837;57.148;-2.144;2022-12-05T16:29:32;3.45;;;2.20;;
27365;SDS011;14837;57.148;-2.144;2022-12-05T16:31:59;5.40;;;3.53;;
27365;SDS011;14837;57.148;-2.144;2022-12-05T16:34:27;9.23;;;4.28;;
27365;SDS011;14837;57.148;-2.144;2022-12-05T16:36:54;3.97;;;2.88;;
27365;SDS011;14837;57.148;-2.144;2022-12-05T16:39:22;4.78;;;3.42;;
27365;SDS011;14837;57.148;-2.144;2022-12-05T16:41:49;2.90;;;2.40;;
27365;SDS011;14837;57.148;-2.144;2022-12-05T16:47:01;5.50;;;3.33;;
27365;SDS011;14837;57.148;-2.144;2022-12-05T16:52:01;5.07;;;3.25;;
27365;SDS011;14837;57.148;-2.144;2022-12-05T16:54:28;6.50;;;2.63;;
27365;SDS011;14837;57.148;-2.144;2022-12-05T16:56:55;4.28;;;2.72;;
27365;SDS011;14837;57.148;-2.144;2022-12-05T16:59:40;2.75;;;2.25;;
27365;SDS011;14837;57.148;-2.144;2022-12-05T17:02:13;5.10;;;2.95;;
27365;SDS011;14837;57.148;-2.144;2022-12-05T17:04:40;11.35;;;8.05;;
27365;SDS011;14837;57.148;-2.144;2022-12-05T17:07:07;18.38;;;16.25;;
27365;SDS011;14837;57.148;-2.144;2022-12-05T17:09:33;8.45;;;7.43;;
27365;SDS011;14837;57.148;-2.144;2022-12-05T17:12:02;5.15;;;4.68;;
27365;SDS011;14837;57.148;-2.144;2022-12-05T17:14:29;6.40;;;5.13;;
27365;SDS011;14837;57.148;-2.144;2022-12-05T17:16:56;4.50;;;4.05;;
27365;SDS011;14837;57.148;-2.144;2022-12-05T17:19:22;10.05;;;6.72;;
27365;SDS011;14837;57.148;-2.144;2022-12-05T17:21:49;5.30;;;4.72;;
27365;SDS011;14837;57.148;-2.144;2022-12-05T17:24:17;5.97;;;5.43;;
27365;SDS011;14837;57.148;-2.144;2022-12-05T17:26:44;7.97;;;6.10;;
27365;SDS011;14837;57.148;-2.144;2022-12-05T17:29:11;5.90;;;5.50;;
27365;SDS011;14837;57.148;-2.144;2022-12-05T17:31:37;7.57;;;5.22;;
27365;SDS011;14837;57.148;-2.144;2022-12-05T17:34:09;6.30;;;4.72;;
27365;SDS011;14837;57.148;-2.144;2022-12-05T17:36:37;6.28;;;5.38;;
27365;SDS011;14837;57.148;-2.144;2022-12-05T17:39:04;4.50;;;4.07;;
27365;SDS011;14837;57.148;-2.144;2022-12-05T17:41:30;6.35;;;4.95;;
27365;SDS011;14837;57.148;-2.144;2022-12-05T17:43:57;6.10;;;4.13;;
27365;SDS011;14837;57.148;-2.144;2022-12-05T17:46:23;5.07;;;4.55;;
27365;SDS011;14837;57.148;-2.144;2022-12-05T17:48:50;3.70;;;3.40;;
27365;SDS011;14837;57.148;-2.144;2022-12-05T17:51:17;3.15;;;2.65;;
27365;SDS011;14837;57.148;-2.144;2022-12-05T17:53:44;4.50;;;2.85;;
27365;SDS011;14837;57.148;-2.144;2022-12-05T17:56:11;4.63;;;3.85;;